createdAt,value
2019-03-22T00:02:40.000Z,2.06
2019-03-22T00:12:57.706Z,2.28
2019-03-22T00:22:33.617Z,1.92
2019-03-22T00:32:49.764Z,2.10
2019-03-22T00:45:55.349Z,2.02
2019-03-22T00:46:53.513Z,2.06
2019-03-22T01:04:08.519Z,2.01
2019-03-22T01:05:05.153Z,1.99
2019-03-22T01:08:48.286Z,1.83
2019-03-22T01:22:07.155Z,1.38
2019-03-22T01:23:12.743Z,1.43
2019-03-22T01:29:04.686Z,1.37
2019-03-22T01:30:10.931Z,1.30
2019-03-22T01:42:15.557Z,1.43
2019-03-22T01:43:13.864Z,1.41
2019-03-22T01:48:13.782Z,1.37
2019-03-22T01:48:48.904Z,1.40
2019-03-22T01:49:47.427Z,1.28
2019-03-22T01:50:44.821Z,1.32
2019-03-22T01:53:48.248Z,1.30
2019-03-22T01:57:52.884Z,1.26
2019-03-22T01:58:44.714Z,1.28
2019-03-22T02:03:18.511Z,1.40
2019-03-22T02:10:16.721Z,1.52
2019-03-22T02:13:56.214Z,1.48
2019-03-22T02:17:49.086Z,1.48
2019-03-22T02:22:24.917Z,1.44
2019-03-22T02:23:20.594Z,1.41
2019-03-22T02:25:56.542Z,1.26
2019-03-22T02:28:03.278Z,1.18
2019-03-22T02:38:37.388Z,0.89
2019-03-22T02:42:12.188Z,0.93
2019-03-22T02:58:38.764Z,0.59
2019-03-22T02:59:42.806Z,0.62
2019-03-22T03:04:10.575Z,0.66
2019-03-22T03:14:53.886Z,0.62
2019-03-22T03:22:51.205Z,0.64
2019-03-22T03:23:50.048Z,0.61
2019-03-22T03:25:57.417Z,0.57
2019-03-22T03:32:27.658Z,0.57
2019-03-22T03:33:27.959Z,0.50
2019-03-22T03:34:28.171Z,0.53
2019-03-22T04:27:12.397Z,0.64
2019-03-22T04:48:01.388Z,0.09
2019-03-22T05:01:21.980Z,0.39
2019-03-22T05:03:17.130Z,0.35
2019-03-22T05:06:54.020Z,0.32
2019-03-22T05:07:50.263Z,0.31
2019-03-22T05:13:29.284Z,0.46
2019-03-22T05:14:30.887Z,0.47
2019-03-22T05:15:22.369Z,0.42
2019-03-22T05:16:20.230Z,0.42
2019-03-22T05:17:23.553Z,0.40
2019-03-22T05:31:48.932Z,0.31
2019-03-22T05:32:33.708Z,0.32
2019-03-22T05:33:33.721Z,0.22
2019-03-22T05:34:30.842Z,0.27
2019-03-22T05:35:35.695Z,0.27
2019-03-22T05:36:34.115Z,0.35
2019-03-22T05:37:33.255Z,0.28
2019-03-22T05:42:09.833Z,0.34
2019-03-22T05:43:08.674Z,0.17
2019-03-22T05:44:05.757Z,0.34
2019-03-22T05:45:04.785Z,0.18
2019-03-22T05:47:41.461Z,0.25
2019-03-22T05:48:33.947Z,0.22
2019-03-22T05:50:38.403Z,0.27
2019-03-22T05:51:36.964Z,0.29
2019-03-22T05:52:37.616Z,0.35
2019-03-22T05:54:34.564Z,0.36
2019-03-22T06:24:45.206Z,0.83
2019-03-22T12:24:46.330Z,19.24
2019-03-22T12:25:21.038Z,19.25
2019-03-22T12:26:20.931Z,19.31
2019-03-22T14:48:48.615Z,19.80
2019-03-22T14:49:48.321Z,19.73
2019-03-22T14:50:48.314Z,19.78
2019-03-22T14:59:23.735Z,19.78
2019-03-22T15:00:23.724Z,19.79
2019-03-22T15:01:23.620Z,19.94
2019-03-22T15:04:23.400Z,20.09
2019-03-22T15:05:23.200Z,19.98
2019-03-22T15:06:23.186Z,20.15
2019-03-22T15:07:23.098Z,20.06
2019-03-22T15:08:23.039Z,20.15
2019-03-22T15:09:22.961Z,20.10
2019-03-22T15:10:22.872Z,20.01
2019-03-22T15:11:22.858Z,20.01
2019-03-22T15:12:22.760Z,20.06
2019-03-22T15:13:22.680Z,20.01
2019-03-22T15:14:22.599Z,20.12
2019-03-22T15:15:22.642Z,20.01
2019-03-22T15:16:22.482Z,19.97
2019-03-22T15:17:22.427Z,20.10
2019-03-22T15:18:22.234Z,20.08
2019-03-22T15:19:22.201Z,20.28
2019-03-22T15:20:22.112Z,20.24
2019-03-22T15:21:22.104Z,20.08
2019-03-22T15:22:22.116Z,20.08
2019-03-22T15:23:22.005Z,20.01
2019-03-22T15:24:21.855Z,19.93
2019-03-22T15:25:21.795Z,19.88
2019-03-22T15:26:21.669Z,19.87
2019-03-22T15:27:21.702Z,19.83
2019-03-22T15:28:21.589Z,19.83
2019-03-22T15:29:21.516Z,19.80
2019-03-22T15:30:21.470Z,19.71
2019-03-22T15:31:21.394Z,19.68
2019-03-22T15:32:21.285Z,19.63
2019-03-22T15:33:21.213Z,19.69
2019-03-22T15:34:21.118Z,19.79
2019-03-22T15:35:21.282Z,19.90
2019-03-22T15:36:21.012Z,19.91
2019-03-22T15:37:21.064Z,20.03
2019-03-22T15:38:21.071Z,19.98
2019-03-22T15:39:21.026Z,20.05
2019-03-22T15:40:20.664Z,19.94
2019-03-22T15:41:20.646Z,19.88
2019-03-22T15:42:20.545Z,19.98
2019-03-22T15:43:20.443Z,19.97
2019-03-22T15:44:20.479Z,19.97
2019-03-22T15:45:20.329Z,19.98
2019-03-22T15:46:20.324Z,20.01
2019-03-22T15:47:20.173Z,19.98
2019-03-22T15:48:20.157Z,20.06
2019-03-22T15:49:20.024Z,20.01
2019-03-22T15:50:19.948Z,20.15
2019-03-22T15:51:19.886Z,20.10
2019-03-22T15:52:19.825Z,20.09
2019-03-22T15:53:19.784Z,20.15
2019-03-22T15:54:19.665Z,20.24
2019-03-22T15:55:19.585Z,20.20
2019-03-22T15:56:19.547Z,20.09
2019-03-22T15:57:19.466Z,20.06
2019-03-22T15:58:19.407Z,20.05
2019-03-22T15:59:19.353Z,19.88
2019-03-22T16:00:19.218Z,20.01
2019-03-22T16:01:19.204Z,19.83
2019-03-22T16:02:19.132Z,19.82
2019-03-22T16:03:19.087Z,19.78
2019-03-22T16:04:18.995Z,19.73
2019-03-22T16:05:18.860Z,19.86
2019-03-22T16:06:18.801Z,19.86
2019-03-22T16:07:18.761Z,19.90
2019-03-22T16:08:18.640Z,19.90
2019-03-22T16:09:18.576Z,19.69
2019-03-22T16:10:18.538Z,19.69
2019-03-22T16:11:18.472Z,19.55
2019-03-22T16:12:18.400Z,19.55
2019-03-22T16:13:18.320Z,19.43
2019-03-22T16:14:18.223Z,19.36
2019-03-22T16:15:18.142Z,19.32
2019-03-22T16:16:18.062Z,19.32
2019-03-22T16:17:17.997Z,19.24
2019-03-22T16:18:17.957Z,19.28
2019-03-22T16:19:17.851Z,19.35
2019-03-22T16:20:17.794Z,19.25
2019-03-22T16:21:17.769Z,19.28
2019-03-22T16:22:17.739Z,19.25
2019-03-22T16:23:17.611Z,19.32
2019-03-22T16:24:17.497Z,19.17
2019-03-22T16:25:17.456Z,19.17
2019-03-22T16:26:17.346Z,19.24
2019-03-22T16:27:17.279Z,19.14
2019-03-22T16:28:17.281Z,19.09
2019-03-22T16:29:17.144Z,19.11
2019-03-22T16:30:17.121Z,18.99
2019-03-22T16:31:17.027Z,19.11
2019-03-22T16:32:16.920Z,19.06
2019-03-22T16:33:16.896Z,19.05
2019-03-22T16:34:16.766Z,19.02
2019-03-22T16:35:16.696Z,18.86
2019-03-22T16:36:16.686Z,18.86
2019-03-22T16:37:16.554Z,18.77
2019-03-22T16:38:16.497Z,18.68
2019-03-22T16:39:16.507Z,18.59
2019-03-22T16:40:23.801Z,18.61
2019-03-22T16:41:16.297Z,18.61
2019-03-22T16:42:16.197Z,18.64
2019-03-22T16:43:16.115Z,18.50
2019-03-22T16:44:16.114Z,18.28
2019-03-22T16:45:15.973Z,18.25
2019-03-22T16:46:15.917Z,18.18
2019-03-22T16:47:15.839Z,18.19
2019-03-22T16:48:15.752Z,18.10
2019-03-22T16:49:15.724Z,18.09
2019-03-22T16:50:15.609Z,18.00
2019-03-22T16:51:15.536Z,17.95
2019-03-22T16:52:15.486Z,17.87
2019-03-22T16:53:15.473Z,17.67
2019-03-22T16:54:15.874Z,17.69
2019-03-22T16:55:15.281Z,17.73
2019-03-22T16:56:15.173Z,17.66
2019-03-22T16:57:15.148Z,17.57
2019-03-22T16:58:15.078Z,17.48
2019-03-22T16:59:15.006Z,17.53
2019-03-22T17:00:14.879Z,17.36
2019-03-22T17:01:14.809Z,17.28
2019-03-22T17:02:14.781Z,17.35
2019-03-22T17:03:14.658Z,17.23
2019-03-22T17:04:14.591Z,17.18
2019-03-22T17:05:15.379Z,17.17
2019-03-22T17:06:14.482Z,17.21
2019-03-22T17:07:14.367Z,17.15
2019-03-22T17:08:14.302Z,17.11
2019-03-22T17:09:14.224Z,17.03
2019-03-22T17:10:14.146Z,16.96
2019-03-22T17:11:14.076Z,16.85
2019-03-22T17:12:14.066Z,16.90
2019-03-22T17:13:13.937Z,16.88
2019-03-22T17:14:13.853Z,16.71
2019-03-22T17:15:13.800Z,16.75
2019-03-22T17:16:13.715Z,16.63
2019-03-22T17:17:13.629Z,16.56
2019-03-22T17:18:13.633Z,16.44
2019-03-22T17:19:13.574Z,16.35
2019-03-22T17:20:13.462Z,16.41
2019-03-22T17:21:13.417Z,16.26
2019-03-22T17:22:13.319Z,16.22
2019-03-22T17:23:13.212Z,16.18
2019-03-22T17:24:13.169Z,16.07
2019-03-22T17:25:13.049Z,15.94
2019-03-22T17:26:12.972Z,15.88
2019-03-22T17:27:12.894Z,15.73
2019-03-22T17:28:12.834Z,15.68
2019-03-22T17:29:12.789Z,15.59
2019-03-22T17:30:12.757Z,15.52
2019-03-22T17:31:12.615Z,15.49
2019-03-22T17:32:12.531Z,15.43
2019-03-22T17:33:12.446Z,15.27
2019-03-22T17:34:14.444Z,15.15
2019-03-22T17:35:12.354Z,15.05
2019-03-22T17:36:12.232Z,14.90
2019-03-22T17:37:12.150Z,14.87
2019-03-22T17:38:12.107Z,14.79
2019-03-22T17:39:12.088Z,14.64
2019-03-22T17:40:11.974Z,14.53
2019-03-22T17:41:11.909Z,14.41
2019-03-22T17:42:11.783Z,14.46
2019-03-22T17:43:11.829Z,14.36
2019-03-22T17:44:11.633Z,14.41
2019-03-22T17:45:11.559Z,14.31
2019-03-22T17:46:11.535Z,14.24
2019-03-22T17:47:11.409Z,14.03
2019-03-22T17:48:11.469Z,13.94
2019-03-22T17:49:11.430Z,13.83
2019-03-22T17:50:11.182Z,13.74
2019-03-22T17:51:11.129Z,13.52
2019-03-22T17:52:11.095Z,13.41
2019-03-22T17:53:11.020Z,13.11
2019-03-22T17:54:11.046Z,12.91
2019-03-22T17:55:10.830Z,12.64
2019-03-22T17:56:10.773Z,12.52
2019-03-22T17:57:18.336Z,12.30
2019-03-22T17:58:10.651Z,12.31
2019-03-22T17:59:10.508Z,12.15
2019-03-22T18:00:10.535Z,12.21
2019-03-22T18:01:10.398Z,12.15
2019-03-22T18:02:10.280Z,12.24
2019-03-22T18:03:10.246Z,12.34
2019-03-22T18:04:10.193Z,12.33
2019-03-22T18:05:10.045Z,12.34
2019-03-22T18:06:09.971Z,12.28
2019-03-22T18:07:09.944Z,12.19
2019-03-22T18:08:09.891Z,12.03
2019-03-22T18:09:09.794Z,11.89
2019-03-22T18:10:09.905Z,11.89
2019-03-22T18:11:09.733Z,11.89
2019-03-22T18:12:09.590Z,11.83
2019-03-22T18:13:09.476Z,11.81
2019-03-22T18:14:09.625Z,11.86
2019-03-22T18:15:09.312Z,11.90
2019-03-22T18:16:09.319Z,11.89
2019-03-22T18:17:09.230Z,11.86
2019-03-22T18:18:09.238Z,11.75
2019-03-22T18:19:09.471Z,11.79
2019-03-22T18:20:08.962Z,11.76
2019-03-22T18:21:08.997Z,11.75
2019-03-22T18:22:08.772Z,11.61
2019-03-22T18:23:11.572Z,11.76
2019-03-22T18:24:09.104Z,11.56
2019-03-22T18:25:10.128Z,11.65
2019-03-22T18:26:17.323Z,11.54
2019-03-22T18:27:10.202Z,11.56
2019-03-22T18:28:09.914Z,11.59
2019-03-22T18:29:08.529Z,11.61
2019-03-22T18:30:08.183Z,11.69
2019-03-22T18:31:08.278Z,11.67
2019-03-22T18:32:08.155Z,11.65
2019-03-22T18:33:08.031Z,11.69
2019-03-22T18:34:08.006Z,11.68
2019-03-22T18:35:08.113Z,11.69
2019-03-22T18:36:07.693Z,11.61
2019-03-22T18:37:07.760Z,11.43
2019-03-22T18:38:07.602Z,11.39
2019-03-22T18:39:07.580Z,11.32
2019-03-22T18:40:07.664Z,11.36
2019-03-22T18:41:07.400Z,11.18
2019-03-22T18:42:07.334Z,11.14
2019-03-22T18:43:07.290Z,11.06
2019-03-22T18:44:07.165Z,11.14
2019-03-22T18:45:07.070Z,11.03
2019-03-22T18:46:07.076Z,11.00
2019-03-22T18:47:06.876Z,10.92
2019-03-22T18:48:06.984Z,10.91
2019-03-22T18:49:06.864Z,10.75
2019-03-22T18:50:06.726Z,10.78
2019-03-22T18:51:06.621Z,10.78
2019-03-22T18:52:08.171Z,10.73
2019-03-22T18:53:06.474Z,10.74
2019-03-22T18:54:06.289Z,10.73
2019-03-22T18:55:06.235Z,10.67
2019-03-22T18:56:06.196Z,10.71
2019-03-22T18:57:06.082Z,10.69
2019-03-22T18:58:05.989Z,10.66
2019-03-22T18:59:05.910Z,10.71
2019-03-22T19:00:05.940Z,10.73
2019-03-22T19:01:05.844Z,10.75
2019-03-22T19:02:05.724Z,10.75
2019-03-22T19:03:05.697Z,10.67
2019-03-22T19:04:05.740Z,10.71
2019-03-22T19:05:05.546Z,10.62
2019-03-22T19:06:05.408Z,10.71
2019-03-22T19:07:05.415Z,10.60
2019-03-22T19:08:05.215Z,10.55
2019-03-22T19:09:05.185Z,10.43
2019-03-22T19:10:05.248Z,10.33
2019-03-22T19:11:05.139Z,10.28
2019-03-22T19:12:04.947Z,10.08
2019-03-22T19:13:04.890Z,9.92
2019-03-22T19:14:04.742Z,9.78
2019-03-22T19:15:04.672Z,9.52
2019-03-22T19:16:04.633Z,9.42
2019-03-22T19:17:04.522Z,9.24
2019-03-22T19:18:04.459Z,9.10
2019-03-22T19:19:04.412Z,9.02
2019-03-22T19:20:04.278Z,8.88
2019-03-22T19:21:04.199Z,8.95
2019-03-22T19:22:04.232Z,9.03
2019-03-22T19:23:04.083Z,9.06
2019-03-22T19:24:04.006Z,9.06
2019-03-22T19:25:03.891Z,9.16
2019-03-22T19:26:03.872Z,9.25
2019-03-22T19:27:03.733Z,9.25
2019-03-22T19:28:03.656Z,9.31
2019-03-22T19:29:03.650Z,9.38
2019-03-22T19:30:03.516Z,9.38
2019-03-22T19:31:03.460Z,9.42
2019-03-22T19:32:13.143Z,9.43
2019-03-22T19:33:03.319Z,9.45
2019-03-22T19:34:03.227Z,9.55
2019-03-22T19:35:03.110Z,9.63
2019-03-22T19:36:03.087Z,9.50
2019-03-22T19:37:02.998Z,9.53
2019-03-22T19:38:02.916Z,9.50
2019-03-22T19:39:02.803Z,9.56
2019-03-22T19:40:02.722Z,9.53
2019-03-22T19:41:02.643Z,9.46
2019-03-22T19:42:02.566Z,9.55
2019-03-22T19:43:02.496Z,9.45
2019-03-22T19:44:02.412Z,9.42
2019-03-22T19:45:02.377Z,9.47
2019-03-22T19:46:02.283Z,9.37
2019-03-22T19:47:02.170Z,9.34
2019-03-22T19:48:02.093Z,9.37
2019-03-22T19:49:02.015Z,9.37
2019-03-22T19:50:01.933Z,9.34
2019-03-22T19:51:01.857Z,9.35
2019-03-22T19:52:01.822Z,9.40
2019-03-22T19:53:01.721Z,9.29
2019-03-22T19:54:01.671Z,9.27
2019-03-22T19:55:01.540Z,9.24
2019-03-22T19:56:01.461Z,9.22
2019-03-22T19:57:01.417Z,9.25
2019-03-22T19:58:01.370Z,9.28
2019-03-22T19:59:01.226Z,9.19
2019-03-22T20:00:01.159Z,9.14
2019-03-22T20:01:01.130Z,9.17
2019-03-22T20:02:01.049Z,9.02
2019-03-22T20:03:00.923Z,9.06
2019-03-22T20:04:00.847Z,9.05
2019-03-22T20:05:04.629Z,9.02
2019-03-22T20:06:00.760Z,9.02
2019-03-22T20:07:00.663Z,8.94
2019-03-22T20:08:00.602Z,8.87
2019-03-22T20:09:00.487Z,8.84
2019-03-22T20:10:00.428Z,8.79
2019-03-22T20:11:00.333Z,8.93
2019-03-22T20:12:00.209Z,8.85
2019-03-22T20:13:00.152Z,8.85
2019-03-22T20:14:00.097Z,8.75
2019-03-22T20:15:00.015Z,8.77
2019-03-22T20:15:59.925Z,8.70
2019-03-22T20:16:59.812Z,8.75
2019-03-22T20:17:59.798Z,8.75
2019-03-22T20:18:59.668Z,8.66
2019-03-22T20:19:59.576Z,8.65
2019-03-22T20:20:59.536Z,8.62
2019-03-22T20:21:59.423Z,8.57
2019-03-22T20:22:59.422Z,8.58
2019-03-22T20:23:59.271Z,8.48
2019-03-22T20:24:59.186Z,8.44
2019-03-22T20:25:59.105Z,8.42
2019-03-22T20:26:59.068Z,8.42
2019-03-22T20:27:58.942Z,8.36
2019-03-22T20:28:58.868Z,8.37
2019-03-22T20:29:58.804Z,8.24
2019-03-22T20:30:58.759Z,8.19
2019-03-22T20:31:58.645Z,7.96
2019-03-22T20:32:58.609Z,7.79
2019-03-22T20:33:58.518Z,7.78
2019-03-22T20:34:58.414Z,7.57
2019-03-22T20:35:58.356Z,7.60
2019-03-22T20:36:58.282Z,7.49
2019-03-22T20:37:58.219Z,7.38
2019-03-22T20:38:58.124Z,7.23
2019-03-22T20:39:58.003Z,7.30
2019-03-22T20:40:57.961Z,7.20
2019-03-22T20:41:57.913Z,7.23
2019-03-22T20:42:57.762Z,7.17
2019-03-22T20:43:57.683Z,7.16
2019-03-22T20:44:57.611Z,7.19
2019-03-22T20:45:57.530Z,7.23
2019-03-22T20:46:57.445Z,7.24
2019-03-22T20:47:57.437Z,7.30
2019-03-22T20:48:57.292Z,7.21
2019-03-22T20:49:57.214Z,7.34
2019-03-22T20:50:57.130Z,7.35
2019-03-22T20:51:57.051Z,7.42
2019-03-22T20:52:56.965Z,7.41
2019-03-22T20:53:56.892Z,7.35
2019-03-22T20:54:56.865Z,7.38
2019-03-22T20:55:56.766Z,7.39
2019-03-22T20:56:56.704Z,7.29
2019-03-22T20:57:56.583Z,7.37
2019-03-22T20:58:56.490Z,7.13
2019-03-22T20:59:56.442Z,7.11
2019-03-22T21:00:56.360Z,7.09
2019-03-22T21:01:56.265Z,7.06
2019-03-22T21:02:56.191Z,6.91
2019-03-22T21:03:56.132Z,6.93
2019-03-22T21:04:56.009Z,6.96
2019-03-22T21:05:55.954Z,6.90
2019-03-22T21:06:55.863Z,6.88
2019-03-22T21:07:55.825Z,6.80
2019-03-22T21:08:55.739Z,6.81
2019-03-22T21:09:55.663Z,6.75
2019-03-22T21:10:55.536Z,6.70
2019-03-22T21:11:55.515Z,6.68
2019-03-22T21:12:55.379Z,6.63
2019-03-22T21:13:55.298Z,6.68
2019-03-22T21:14:55.216Z,6.68
2019-03-22T21:15:55.143Z,6.63
2019-03-22T21:16:55.106Z,6.60
2019-03-22T21:17:54.980Z,6.62
2019-03-22T21:18:54.901Z,6.65
2019-03-22T21:19:54.856Z,6.54
2019-03-22T21:20:54.743Z,6.54
2019-03-22T21:21:54.677Z,6.51
2019-03-22T21:22:54.579Z,6.63
2019-03-22T21:23:54.502Z,6.69
2019-03-22T21:24:54.418Z,6.65
2019-03-22T21:25:54.335Z,6.65
2019-03-22T21:26:54.314Z,6.63
2019-03-22T21:27:54.222Z,6.34
2019-03-22T21:28:54.095Z,6.32
2019-03-22T21:29:54.023Z,6.18
2019-03-22T21:30:54.004Z,6.13
2019-03-22T21:31:53.957Z,6.08
2019-03-22T21:32:53.786Z,6.13
2019-03-22T21:33:53.730Z,6.14
2019-03-22T21:34:53.675Z,6.22
2019-03-22T21:35:53.607Z,6.32
2019-03-22T21:36:53.462Z,6.29
2019-03-22T21:37:53.393Z,6.30
2019-03-22T21:38:53.303Z,6.33
2019-03-22T21:39:53.264Z,6.33
2019-03-22T21:40:53.183Z,6.39
2019-03-22T21:41:53.075Z,6.39
2019-03-22T21:42:52.979Z,6.41
2019-03-22T21:43:52.903Z,6.42
2019-03-22T21:44:52.819Z,6.41
2019-03-22T21:45:52.772Z,6.47
2019-03-22T21:46:52.656Z,6.42
2019-03-22T21:47:52.632Z,6.41
2019-03-22T21:48:52.549Z,6.48
2019-03-22T21:49:52.459Z,6.60
2019-03-22T21:50:52.339Z,6.48
2019-03-22T21:51:52.258Z,6.59
2019-03-22T21:52:52.185Z,6.41
2019-03-22T21:53:52.151Z,6.47
2019-03-22T21:54:52.099Z,6.33
2019-03-22T21:55:54.140Z,6.24
2019-03-22T21:56:51.906Z,6.06
2019-03-22T21:57:51.778Z,5.80
2019-03-22T21:58:51.758Z,5.65
2019-03-22T21:59:51.673Z,5.57
2019-03-22T22:00:51.534Z,5.63
2019-03-22T22:01:51.460Z,5.62
2019-03-22T22:02:51.423Z,5.49
2019-03-22T22:03:51.294Z,5.65
2019-03-22T22:04:51.222Z,5.56
2019-03-22T22:05:51.179Z,5.52
2019-03-22T22:06:51.057Z,5.65
2019-03-22T22:07:51.021Z,5.53
2019-03-22T22:08:50.894Z,5.74
2019-03-22T22:09:50.848Z,5.54
2019-03-22T22:10:59.361Z,5.57
2019-03-22T22:11:50.716Z,5.59
2019-03-22T22:12:50.580Z,5.60
2019-03-22T22:13:50.498Z,5.62
2019-03-22T22:14:50.408Z,5.70
2019-03-22T22:15:50.344Z,5.67
2019-03-22T22:16:50.258Z,5.56
2019-03-22T22:17:50.169Z,5.67
2019-03-22T22:18:50.088Z,5.50
2019-03-22T22:19:50.034Z,5.36
2019-03-22T22:20:49.937Z,5.45
2019-03-22T22:21:49.886Z,5.36
2019-03-22T22:22:49.811Z,5.31
2019-03-22T22:23:49.692Z,5.14
2019-03-22T22:24:49.606Z,5.23
2019-03-22T22:25:49.574Z,5.21
2019-03-22T22:26:49.508Z,5.14
2019-03-22T22:27:49.408Z,5.17
2019-03-22T22:28:49.354Z,5.20
2019-03-22T22:29:49.271Z,5.18
2019-03-22T22:30:49.131Z,5.14
2019-03-22T22:31:49.046Z,5.18
2019-03-22T22:32:49.014Z,5.31
2019-03-22T22:33:48.897Z,5.28
2019-03-22T22:34:49.021Z,5.32
2019-03-22T22:35:58.133Z,5.39
2019-03-22T22:36:48.650Z,5.47
2019-03-22T22:37:48.606Z,5.38
2019-03-22T22:38:48.472Z,5.49
2019-03-22T22:39:48.456Z,5.42
2019-03-22T22:40:48.394Z,5.39
2019-03-22T22:41:48.236Z,5.41
2019-03-22T22:42:48.213Z,5.38
2019-03-22T22:43:48.135Z,5.39
2019-03-22T22:44:48.035Z,5.39
2019-03-22T22:45:47.915Z,5.53
2019-03-22T22:46:47.830Z,5.53
2019-03-22T22:47:47.752Z,5.42
2019-03-22T22:48:47.664Z,5.53
2019-03-22T22:49:48.384Z,5.41
2019-03-22T22:50:47.510Z,5.26
2019-03-22T22:51:47.514Z,5.21
2019-03-22T22:52:47.431Z,5.13
2019-03-22T22:53:47.278Z,5.00
2019-03-22T22:54:47.244Z,4.93
2019-03-22T22:55:47.098Z,4.85
2019-03-22T22:56:47.195Z,4.73
2019-03-22T22:57:46.939Z,4.64
2019-03-22T22:58:46.898Z,4.61
2019-03-22T22:59:46.785Z,4.59
2019-03-22T23:00:46.998Z,4.50
2019-03-22T23:01:46.672Z,4.41
2019-03-22T23:02:46.542Z,4.44
2019-03-22T23:03:46.464Z,4.44
2019-03-22T23:04:46.372Z,4.47
2019-03-22T23:05:46.292Z,4.58
2019-03-22T23:06:46.212Z,4.61
2019-03-22T23:07:46.135Z,4.64
2019-03-22T23:08:46.119Z,4.68
2019-03-22T23:09:46.049Z,4.73
2019-03-22T23:10:45.901Z,4.87
2019-03-22T23:11:45.802Z,4.74
2019-03-22T23:12:45.793Z,4.84
2019-03-22T23:13:45.642Z,4.85
2019-03-22T23:14:45.555Z,4.76
2019-03-22T23:15:45.548Z,4.76
2019-03-22T23:16:45.395Z,4.73
2019-03-22T23:17:45.374Z,4.66
2019-03-22T23:18:45.284Z,4.59
2019-03-22T23:19:45.184Z,4.56
2019-03-22T23:20:45.119Z,4.54
2019-03-22T23:21:44.991Z,4.46
2019-03-22T23:22:44.916Z,4.46
2019-03-22T23:23:44.830Z,4.44
2019-03-22T23:24:44.825Z,4.38
2019-03-22T23:25:44.667Z,4.43
2019-03-22T23:26:44.588Z,4.44
2019-03-22T23:27:44.571Z,4.48
2019-03-22T23:28:44.428Z,4.48
2019-03-22T23:29:44.408Z,4.48
2019-03-22T23:30:44.325Z,4.46
2019-03-22T23:31:45.902Z,4.37
2019-03-22T23:32:44.143Z,4.37
2019-03-22T23:33:44.041Z,4.41
2019-03-22T23:34:43.988Z,4.32
2019-03-22T23:35:43.865Z,4.20
2019-03-22T23:36:43.779Z,4.16
2019-03-22T23:37:43.756Z,4.19
2019-03-22T23:38:43.616Z,4.07
2019-03-22T23:39:43.531Z,4.07
2019-03-22T23:40:43.495Z,4.07
2019-03-22T23:41:43.445Z,3.86
2019-03-22T23:42:43.313Z,3.92
2019-03-22T23:43:43.212Z,3.83
2019-03-22T23:44:43.128Z,3.83
2019-03-22T23:45:43.040Z,3.79
2019-03-22T23:46:43.002Z,3.86
2019-03-22T23:47:42.929Z,3.82
2019-03-22T23:48:42.843Z,3.84
2019-03-22T23:49:42.761Z,3.87
2019-03-22T23:50:42.671Z,3.90
2019-03-22T23:51:42.545Z,3.82
2019-03-22T23:52:42.471Z,3.83
2019-03-22T23:53:42.391Z,3.83
2019-03-22T23:54:42.313Z,3.82
2019-03-22T23:55:42.279Z,3.71
2019-03-22T23:56:42.155Z,3.77
2019-03-22T23:57:42.059Z,3.75
2019-03-22T23:58:41.989Z,3.72
2019-03-22T23:59:41.892Z,3.83
